sensor_id;sensor_type;location;lat;lon;timestamp;P1;durP1;ratioP1;P2;durP2;ratioP2
16393;SDS011;8306;51.128;4.476;2022-11-20T00:00:11;17.33;;;15.83;;
16393;SDS011;8306;51.128;4.476;2022-11-20T00:02:37;16.67;;;15.37;;
16393;SDS011;8306;51.128;4.476;2022-11-20T00:05:04;18.77;;;17.37;;
16393;SDS011;8306;51.128;4.476;2022-11-20T00:07:30;16.67;;;15.27;;
16393;SDS011;8306;51.128;4.476;2022-11-20T00:09:57;16.40;;;15.00;;
16393;SDS011;8306;51.128;4.476;2022-11-20T00:12:23;15.07;;;13.93;;
16393;SDS011;8306;51.128;4.476;2022-11-20T00:14:50;16.37;;;15.07;;
16393;SDS011;8306;51.128;4.476;2022-11-20T00:17:16;15.17;;;13.97;;
16393;SDS011;8306;51.128;4.476;2022-11-20T00:19:43;16.37;;;15.17;;
16393;SDS011;8306;51.128;4.476;2022-11-20T00:22:09;16.80;;;15.53;;
16393;SDS011;8306;51.128;4.476;2022-11-20T00:24:36;14.53;;;13.33;;
16393;SDS011;8306;51.128;4.476;2022-11-20T00:27:02;14.07;;;12.97;;
16393;SDS011;8306;51.128;4.476;2022-11-20T00:29:29;14.73;;;13.63;;
16393;SDS011;8306;51.128;4.476;2022-11-20T00:31:55;14.80;;;13.70;;
16393;SDS011;8306;51.128;4.476;2022-11-20T00:34:22;15.93;;;14.73;;
16393;SDS011;8306;51.128;4.476;2022-11-20T00:36:48;16.57;;;15.27;;
16393;SDS011;8306;51.128;4.476;2022-11-20T00:39:15;16.20;;;14.90;;
16393;SDS011;8306;51.128;4.476;2022-11-20T00:41:41;16.67;;;15.47;;
16393;SDS011;8306;51.128;4.476;2022-11-20T00:44:08;15.40;;;14.20;;
16393;SDS011;8306;51.128;4.476;2022-11-20T00:46:34;14.87;;;13.67;;
16393;SDS011;8306;51.128;4.476;2022-11-20T00:49:01;14.50;;;13.30;;
16393;SDS011;8306;51.128;4.476;2022-11-20T00:51:27;14.17;;;12.97;;
16393;SDS011;8306;51.128;4.476;2022-11-20T00:53:57;15.03;;;13.87;;
16393;SDS011;8306;51.128;4.476;2022-11-20T00:56:23;15.43;;;14.23;;
16393;SDS011;8306;51.128;4.476;2022-11-20T00:58:49;17.17;;;15.57;;
16393;SDS011;8306;51.128;4.476;2022-11-20T01:01:19;14.93;;;13.83;;
16393;SDS011;8306;51.128;4.476;2022-11-20T01:03:47;16.67;;;15.23;;
16393;SDS011;8306;51.128;4.476;2022-11-20T01:06:12;17.93;;;16.53;;
16393;SDS011;8306;51.128;4.476;2022-11-20T01:08:38;15.70;;;14.50;;
16393;SDS011;8306;51.128;4.476;2022-11-20T01:11:06;14.20;;;13.10;;
16393;SDS011;8306;51.128;4.476;2022-11-20T01:13:31;15.97;;;14.57;;
16393;SDS011;8306;51.128;4.476;2022-11-20T01:18:30;15.40;;;14.20;;
16393;SDS011;8306;51.128;4.476;2022-11-20T01:21:00;14.80;;;13.63;;
16393;SDS011;8306;51.128;4.476;2022-11-20T01:23:31;15.87;;;14.57;;
16393;SDS011;8306;51.128;4.476;2022-11-20T01:25:59;15.73;;;14.40;;
16393;SDS011;8306;51.128;4.476;2022-11-20T01:28:24;15.80;;;14.50;;
16393;SDS011;8306;51.128;4.476;2022-11-20T01:30:50;16.87;;;15.57;;
16393;SDS011;8306;51.128;4.476;2022-11-20T01:33:17;16.57;;;15.27;;
16393;SDS011;8306;51.128;4.476;2022-11-20T01:35:43;17.23;;;15.73;;
16393;SDS011;8306;51.128;4.476;2022-11-20T01:38:10;16.27;;;14.87;;
16393;SDS011;8306;51.128;4.476;2022-11-20T01:40:36;16.67;;;15.30;;
16393;SDS011;8306;51.128;4.476;2022-11-20T01:43:12;17.20;;;15.90;;
16393;SDS011;8306;51.128;4.476;2022-11-20T01:48:37;16.23;;;14.93;;
16393;SDS011;8306;51.128;4.476;2022-11-20T01:51:02;15.73;;;14.50;;
16393;SDS011;8306;51.128;4.476;2022-11-20T01:53:30;15.77;;;14.47;;
16393;SDS011;8306;51.128;4.476;2022-11-20T01:55:55;17.30;;;15.90;;
16393;SDS011;8306;51.128;4.476;2022-11-20T01:58:22;20.40;;;18.50;;
16393;SDS011;8306;51.128;4.476;2022-11-20T02:00:50;21.10;;;19.30;;
16393;SDS011;8306;51.128;4.476;2022-11-20T02:03:17;20.67;;;18.57;;
16393;SDS011;8306;51.128;4.476;2022-11-20T02:08:28;24.47;;;21.83;;
16393;SDS011;8306;51.128;4.476;2022-11-20T02:10:55;23.33;;;20.80;;
16393;SDS011;8306;51.128;4.476;2022-11-20T02:13:21;21.07;;;19.17;;
16393;SDS011;8306;51.128;4.476;2022-11-20T02:16:11;18.80;;;17.30;;
16393;SDS011;8306;51.128;4.476;2022-11-20T02:18:43;16.93;;;15.53;;
16393;SDS011;8306;51.128;4.476;2022-11-20T02:21:52;16.73;;;15.33;;
16393;SDS011;8306;51.128;4.476;2022-11-20T02:24:03;15.80;;;14.50;;
16393;SDS011;8306;51.128;4.476;2022-11-20T02:26:29;17.93;;;16.47;;
16393;SDS011;8306;51.128;4.476;2022-11-20T02:28:55;16.17;;;14.87;;
16393;SDS011;8306;51.128;4.476;2022-11-20T02:31:21;15.87;;;14.57;;
16393;SDS011;8306;51.128;4.476;2022-11-20T02:33:53;17.23;;;15.63;;
16393;SDS011;8306;51.128;4.476;2022-11-20T02:36:14;15.77;;;14.47;;
16393;SDS011;8306;51.128;4.476;2022-11-20T02:38:41;18.50;;;16.60;;
16393;SDS011;8306;51.128;4.476;2022-11-20T02:41:07;16.93;;;15.63;;
16393;SDS011;8306;51.128;4.476;2022-11-20T02:43:34;15.97;;;14.63;;
16393;SDS011;8306;51.128;4.476;2022-11-20T02:46:00;15.50;;;14.30;;
16393;SDS011;8306;51.128;4.476;2022-11-20T02:48:27;19.63;;;17.83;;
16393;SDS011;8306;51.128;4.476;2022-11-20T02:50:53;16.97;;;15.67;;
16393;SDS011;8306;51.128;4.476;2022-11-20T02:53:20;18.27;;;16.77;;
16393;SDS011;8306;51.128;4.476;2022-11-20T02:55:46;17.63;;;16.23;;
16393;SDS011;8306;51.128;4.476;2022-11-20T02:58:13;17.47;;;15.97;;
16393;SDS011;8306;51.128;4.476;2022-11-20T03:00:39;18.23;;;16.40;;
16393;SDS011;8306;51.128;4.476;2022-11-20T03:03:06;18.63;;;17.13;;
16393;SDS011;8306;51.128;4.476;2022-11-20T03:05:32;18.63;;;17.07;;
16393;SDS011;8306;51.128;4.476;2022-11-20T03:07:59;19.37;;;17.67;;
16393;SDS011;8306;51.128;4.476;2022-11-20T03:10:25;18.53;;;16.93;;
16393;SDS011;8306;51.128;4.476;2022-11-20T03:12:55;19.03;;;17.10;;
16393;SDS011;8306;51.128;4.476;2022-11-20T03:15:24;18.40;;;16.80;;
16393;SDS011;8306;51.128;4.476;2022-11-20T03:17:52;19.27;;;17.60;;
16393;SDS011;8306;51.128;4.476;2022-11-20T03:20:17;19.03;;;17.43;;
16393;SDS011;8306;51.128;4.476;2022-11-20T03:22:43;18.27;;;16.77;;
16393;SDS011;8306;51.128;4.476;2022-11-20T03:25:10;20.40;;;18.70;;
16393;SDS011;8306;51.128;4.476;2022-11-20T03:27:36;19.37;;;17.63;;
16393;SDS011;8306;51.128;4.476;2022-11-20T03:30:03;18.20;;;16.70;;
16393;SDS011;8306;51.128;4.476;2022-11-20T03:32:29;18.80;;;17.00;;
16393;SDS011;8306;51.128;4.476;2022-11-20T03:34:56;20.20;;;18.43;;
16393;SDS011;8306;51.128;4.476;2022-11-20T03:37:22;19.67;;;18.03;;
16393;SDS011;8306;51.128;4.476;2022-11-20T03:39:48;20.07;;;18.27;;
16393;SDS011;8306;51.128;4.476;2022-11-20T03:42:15;23.13;;;20.73;;
16393;SDS011;8306;51.128;4.476;2022-11-20T03:44:59;22.13;;;19.43;;
16393;SDS011;8306;51.128;4.476;2022-11-20T03:47:26;24.97;;;19.97;;
16393;SDS011;8306;51.128;4.476;2022-11-20T03:49:52;27.43;;;22.53;;
16393;SDS011;8306;51.128;4.476;2022-11-20T03:52:19;26.80;;;21.97;;
16393;SDS011;8306;51.128;4.476;2022-11-20T03:54:45;23.50;;;21.10;;
16393;SDS011;8306;51.128;4.476;2022-11-20T03:57:12;24.17;;;21.70;;
16393;SDS011;8306;51.128;4.476;2022-11-20T03:59:38;25.97;;;22.17;;
16393;SDS011;8306;51.128;4.476;2022-11-20T04:02:05;38.87;;;25.97;;
16393;SDS011;8306;51.128;4.476;2022-11-20T04:04:31;36.13;;;25.40;;
16393;SDS011;8306;51.128;4.476;2022-11-20T04:06:58;29.70;;;24.10;;
16393;SDS011;8306;51.128;4.476;2022-11-20T04:09:24;31.67;;;23.13;;
16393;SDS011;8306;51.128;4.476;2022-11-20T04:11:51;36.63;;;25.07;;
16393;SDS011;8306;51.128;4.476;2022-11-20T04:14:17;33.47;;;25.73;;
16393;SDS011;8306;51.128;4.476;2022-11-20T04:16:44;35.50;;;24.90;;
16393;SDS011;8306;51.128;4.476;2022-11-20T04:19:11;29.80;;;24.00;;
16393;SDS011;8306;51.128;4.476;2022-11-20T04:21:40;34.60;;;24.53;;
16393;SDS011;8306;51.128;4.476;2022-11-20T04:24:06;30.53;;;23.70;;
16393;SDS011;8306;51.128;4.476;2022-11-20T04:26:33;29.93;;;23.40;;
16393;SDS011;8306;51.128;4.476;2022-11-20T04:28:59;33.00;;;23.23;;
16393;SDS011;8306;51.128;4.476;2022-11-20T04:31:26;29.03;;;22.90;;
16393;SDS011;8306;51.128;4.476;2022-11-20T04:33:52;30.47;;;24.13;;
16393;SDS011;8306;51.128;4.476;2022-11-20T04:36:20;31.80;;;24.07;;
16393;SDS011;8306;51.128;4.476;2022-11-20T04:38:45;30.63;;;23.73;;
16393;SDS011;8306;51.128;4.476;2022-11-20T04:41:16;33.07;;;23.47;;
16393;SDS011;8306;51.128;4.476;2022-11-20T04:43:41;36.63;;;24.07;;
16393;SDS011;8306;51.128;4.476;2022-11-20T04:46:07;28.67;;;22.37;;
16393;SDS011;8306;51.128;4.476;2022-11-20T04:48:34;28.07;;;21.60;;
16393;SDS011;8306;51.128;4.476;2022-11-20T04:51:02;30.57;;;23.93;;
16393;SDS011;8306;51.128;4.476;2022-11-20T04:53:27;35.00;;;26.73;;
16393;SDS011;8306;51.128;4.476;2022-11-20T04:55:58;30.10;;;23.70;;
16393;SDS011;8306;51.128;4.476;2022-11-20T04:58:20;29.03;;;22.83;;
16393;SDS011;8306;51.128;4.476;2022-11-20T05:00:46;33.67;;;23.70;;
16393;SDS011;8306;51.128;4.476;2022-11-20T05:03:13;32.57;;;22.60;;
16393;SDS011;8306;51.128;4.476;2022-11-20T05:05:39;28.40;;;21.83;;
16393;SDS011;8306;51.128;4.476;2022-11-20T05:08:06;33.73;;;23.97;;
16393;SDS011;8306;51.128;4.476;2022-11-20T05:10:32;34.77;;;23.93;;
16393;SDS011;8306;51.128;4.476;2022-11-20T05:12:58;31.40;;;22.47;;
16393;SDS011;8306;51.128;4.476;2022-11-20T05:15:25;30.23;;;22.10;;
16393;SDS011;8306;51.128;4.476;2022-11-20T05:17:52;30.13;;;23.17;;
16393;SDS011;8306;51.128;4.476;2022-11-20T05:20:18;32.00;;;23.30;;
16393;SDS011;8306;51.128;4.476;2022-11-20T05:22:44;26.77;;;22.30;;
16393;SDS011;8306;51.128;4.476;2022-11-20T05:25:11;33.87;;;23.47;;
16393;SDS011;8306;51.128;4.476;2022-11-20T05:27:37;31.77;;;23.90;;
16393;SDS011;8306;51.128;4.476;2022-11-20T05:30:04;38.10;;;24.27;;
16393;SDS011;8306;51.128;4.476;2022-11-20T05:32:30;31.07;;;23.00;;
16393;SDS011;8306;51.128;4.476;2022-11-20T05:34:57;38.73;;;24.83;;
16393;SDS011;8306;51.128;4.476;2022-11-20T05:37:23;32.23;;;22.93;;
16393;SDS011;8306;51.128;4.476;2022-11-20T05:39:50;37.37;;;24.07;;
16393;SDS011;8306;51.128;4.476;2022-11-20T05:42:16;30.03;;;23.83;;
16393;SDS011;8306;51.128;4.476;2022-11-20T05:44:58;27.97;;;22.63;;
16393;SDS011;8306;51.128;4.476;2022-11-20T05:47:24;30.03;;;23.17;;
16393;SDS011;8306;51.128;4.476;2022-11-20T05:49:51;35.00;;;24.47;;
16393;SDS011;8306;51.128;4.476;2022-11-20T05:52:17;31.57;;;24.30;;
16393;SDS011;8306;51.128;4.476;2022-11-20T05:54:44;51.10;;;26.63;;
16393;SDS011;8306;51.128;4.476;2022-11-20T05:57:10;29.23;;;24.03;;
16393;SDS011;8306;51.128;4.476;2022-11-20T05:59:37;35.77;;;24.03;;
16393;SDS011;8306;51.128;4.476;2022-11-20T06:02:03;37.60;;;26.13;;
16393;SDS011;8306;51.128;4.476;2022-11-20T06:04:29;26.40;;;22.30;;
16393;SDS011;8306;51.128;4.476;2022-11-20T06:06:56;38.30;;;24.37;;
16393;SDS011;8306;51.128;4.476;2022-11-20T06:09:22;38.53;;;25.77;;
16393;SDS011;8306;51.128;4.476;2022-11-20T06:11:49;37.13;;;26.03;;
16393;SDS011;8306;51.128;4.476;2022-11-20T06:14:15;32.83;;;23.97;;
16393;SDS011;8306;51.128;4.476;2022-11-20T06:16:42;41.20;;;26.53;;
16393;SDS011;8306;51.128;4.476;2022-11-20T06:19:08;39.10;;;27.33;;
16393;SDS011;8306;51.128;4.476;2022-11-20T06:21:35;42.60;;;29.40;;
16393;SDS011;8306;51.128;4.476;2022-11-20T06:24:01;43.63;;;27.67;;
16393;SDS011;8306;51.128;4.476;2022-11-20T06:26:28;44.60;;;26.47;;
16393;SDS011;8306;51.128;4.476;2022-11-20T06:28:54;34.87;;;25.43;;
16393;SDS011;8306;51.128;4.476;2022-11-20T06:31:24;30.13;;;22.90;;
16393;SDS011;8306;51.128;4.476;2022-11-20T06:33:50;39.67;;;25.33;;
16393;SDS011;8306;51.128;4.476;2022-11-20T06:36:17;44.73;;;26.07;;
16393;SDS011;8306;51.128;4.476;2022-11-20T06:38:43;36.60;;;25.40;;
16393;SDS011;8306;51.128;4.476;2022-11-20T06:41:17;32.10;;;23.30;;
16393;SDS011;8306;51.128;4.476;2022-11-20T06:43:42;43.67;;;25.37;;
16393;SDS011;8306;51.128;4.476;2022-11-20T06:46:09;36.13;;;25.20;;
16393;SDS011;8306;51.128;4.476;2022-11-20T06:48:35;38.60;;;25.17;;
16393;SDS011;8306;51.128;4.476;2022-11-20T06:51:05;36.67;;;24.27;;
16393;SDS011;8306;51.128;4.476;2022-11-20T06:53:31;35.47;;;24.27;;
16393;SDS011;8306;51.128;4.476;2022-11-20T06:55:57;33.47;;;23.67;;
16393;SDS011;8306;51.128;4.476;2022-11-20T06:58:26;32.20;;;22.97;;
16393;SDS011;8306;51.128;4.476;2022-11-20T07:00:50;41.13;;;24.93;;
16393;SDS011;8306;51.128;4.476;2022-11-20T07:03:17;36.97;;;24.83;;
16393;SDS011;8306;51.128;4.476;2022-11-20T07:05:43;40.07;;;25.50;;
16393;SDS011;8306;51.128;4.476;2022-11-20T07:08:10;34.17;;;22.57;;
16393;SDS011;8306;51.128;4.476;2022-11-20T07:10:36;29.50;;;23.13;;
16393;SDS011;8306;51.128;4.476;2022-11-20T07:13:03;45.27;;;25.70;;
16393;SDS011;8306;51.128;4.476;2022-11-20T07:15:29;36.10;;;24.27;;
16393;SDS011;8306;51.128;4.476;2022-11-20T07:17:58;33.60;;;24.23;;
16393;SDS011;8306;51.128;4.476;2022-11-20T07:20:22;38.47;;;24.23;;
16393;SDS011;8306;51.128;4.476;2022-11-20T07:22:53;35.33;;;23.37;;
16393;SDS011;8306;51.128;4.476;2022-11-20T07:25:15;34.67;;;24.30;;
16393;SDS011;8306;51.128;4.476;2022-11-20T07:27:42;36.50;;;24.13;;
16393;SDS011;8306;51.128;4.476;2022-11-20T07:30:08;32.63;;;23.40;;
16393;SDS011;8306;51.128;4.476;2022-11-20T07:32:35;30.93;;;23.80;;
16393;SDS011;8306;51.128;4.476;2022-11-20T07:35:01;32.93;;;23.93;;
16393;SDS011;8306;51.128;4.476;2022-11-20T07:37:27;37.17;;;23.73;;
16393;SDS011;8306;51.128;4.476;2022-11-20T07:39:54;29.43;;;22.60;;
16393;SDS011;8306;51.128;4.476;2022-11-20T07:42:20;36.17;;;25.23;;
16393;SDS011;8306;51.128;4.476;2022-11-20T07:44:47;36.93;;;24.67;;
16393;SDS011;8306;51.128;4.476;2022-11-20T07:47:13;33.20;;;23.57;;
16393;SDS011;8306;51.128;4.476;2022-11-20T07:49:40;40.80;;;25.03;;
16393;SDS011;8306;51.128;4.476;2022-11-20T07:52:06;29.87;;;23.30;;
16393;SDS011;8306;51.128;4.476;2022-11-20T07:54:33;34.70;;;23.30;;
16393;SDS011;8306;51.128;4.476;2022-11-20T07:56:59;30.90;;;22.77;;
16393;SDS011;8306;51.128;4.476;2022-11-20T07:59:26;43.63;;;24.57;;
16393;SDS011;8306;51.128;4.476;2022-11-20T08:01:52;37.53;;;23.90;;
16393;SDS011;8306;51.128;4.476;2022-11-20T08:04:19;41.47;;;25.43;;
16393;SDS011;8306;51.128;4.476;2022-11-20T08:06:45;36.50;;;25.27;;
16393;SDS011;8306;51.128;4.476;2022-11-20T08:09:12;35.00;;;23.77;;
16393;SDS011;8306;51.128;4.476;2022-11-20T08:11:38;31.30;;;23.33;;
16393;SDS011;8306;51.128;4.476;2022-11-20T08:14:23;36.10;;;24.87;;
16393;SDS011;8306;51.128;4.476;2022-11-20T08:16:50;40.33;;;26.07;;
16393;SDS011;8306;51.128;4.476;2022-11-20T08:19:17;35.97;;;25.60;;
16393;SDS011;8306;51.128;4.476;2022-11-20T08:21:43;38.37;;;24.60;;
16393;SDS011;8306;51.128;4.476;2022-11-20T08:24:10;35.07;;;24.00;;
16393;SDS011;8306;51.128;4.476;2022-11-20T08:26:36;46.97;;;27.90;;
16393;SDS011;8306;51.128;4.476;2022-11-20T08:29:03;27.93;;;22.33;;
16393;SDS011;8306;51.128;4.476;2022-11-20T08:31:29;33.83;;;24.43;;
16393;SDS011;8306;51.128;4.476;2022-11-20T08:33:55;34.73;;;23.57;;
16393;SDS011;8306;51.128;4.476;2022-11-20T08:36:22;34.87;;;22.80;;
16393;SDS011;8306;51.128;4.476;2022-11-20T08:38:52;40.30;;;25.73;;
16393;SDS011;8306;51.128;4.476;2022-11-20T08:41:21;34.47;;;23.67;;
16393;SDS011;8306;51.128;4.476;2022-11-20T08:43:50;46.33;;;26.40;;
16393;SDS011;8306;51.128;4.476;2022-11-20T08:46:16;41.03;;;24.57;;
16393;SDS011;8306;51.128;4.476;2022-11-20T08:48:43;37.77;;;25.03;;
16393;SDS011;8306;51.128;4.476;2022-11-20T08:51:09;41.60;;;24.87;;
16393;SDS011;8306;51.128;4.476;2022-11-20T08:53:35;43.90;;;25.50;;
16393;SDS011;8306;51.128;4.476;2022-11-20T08:56:02;42.30;;;24.63;;
16393;SDS011;8306;51.128;4.476;2022-11-20T08:58:28;38.17;;;24.63;;
16393;SDS011;8306;51.128;4.476;2022-11-20T09:00:55;49.17;;;26.67;;
16393;SDS011;8306;51.128;4.476;2022-11-20T09:03:21;38.03;;;24.37;;
16393;SDS011;8306;51.128;4.476;2022-11-20T09:05:48;44.67;;;25.10;;
16393;SDS011;8306;51.128;4.476;2022-11-20T09:08:14;41.47;;;25.03;;
16393;SDS011;8306;51.128;4.476;2022-11-20T09:10:41;39.93;;;24.20;;
16393;SDS011;8306;51.128;4.476;2022-11-20T09:13:07;30.07;;;21.77;;
16393;SDS011;8306;51.128;4.476;2022-11-20T09:15:34;37.17;;;23.10;;
16393;SDS011;8306;51.128;4.476;2022-11-20T09:18:01;41.03;;;23.80;;
16393;SDS011;8306;51.128;4.476;2022-11-20T09:20:27;33.40;;;22.97;;
16393;SDS011;8306;51.128;4.476;2022-11-20T09:22:53;43.40;;;24.33;;
16393;SDS011;8306;51.128;4.476;2022-11-20T09:25:20;37.10;;;24.27;;
16393;SDS011;8306;51.128;4.476;2022-11-20T09:30:08;36.43;;;22.13;;
16393;SDS011;8306;51.128;4.476;2022-11-20T09:32:35;40.83;;;22.97;;
16393;SDS011;8306;51.128;4.476;2022-11-20T09:35:01;42.57;;;24.30;;
16393;SDS011;8306;51.128;4.476;2022-11-20T09:37:28;44.03;;;24.33;;
16393;SDS011;8306;51.128;4.476;2022-11-20T09:39:54;46.30;;;27.00;;
16393;SDS011;8306;51.128;4.476;2022-11-20T09:50:28;65.67;;;28.60;;
16393;SDS011;8306;51.128;4.476;2022-11-20T09:55:39;60.27;;;26.77;;
16393;SDS011;8306;51.128;4.476;2022-11-20T09:58:05;51.37;;;25.47;;
16393;SDS011;8306;51.128;4.476;2022-11-20T10:00:31;61.30;;;27.93;;
16393;SDS011;8306;51.128;4.476;2022-11-20T10:03:01;63.83;;;26.70;;
16393;SDS011;8306;51.128;4.476;2022-11-20T10:05:41;73.60;;;28.43;;
16393;SDS011;8306;51.128;4.476;2022-11-20T10:10:54;74.33;;;29.80;;
16393;SDS011;8306;51.128;4.476;2022-11-20T10:18:57;78.67;;;30.27;;
16393;SDS011;8306;51.128;4.476;2022-11-20T10:21:29;72.47;;;27.70;;
16393;SDS011;8306;51.128;4.476;2022-11-20T10:24:01;88.40;;;30.60;;
16393;SDS011;8306;51.128;4.476;2022-11-20T10:27:04;101.43;;;31.80;;
16393;SDS011;8306;51.128;4.476;2022-11-20T10:29:33;78.93;;;31.00;;
16393;SDS011;8306;51.128;4.476;2022-11-20T10:32:03;98.37;;;31.70;;
16393;SDS011;8306;51.128;4.476;2022-11-20T10:37:15;84.57;;;30.53;;
16393;SDS011;8306;51.128;4.476;2022-11-20T10:39:51;81.57;;;29.03;;
16393;SDS011;8306;51.128;4.476;2022-11-20T10:42:08;75.37;;;29.03;;
16393;SDS011;8306;51.128;4.476;2022-11-20T10:44:32;82.87;;;29.97;;
16393;SDS011;8306;51.128;4.476;2022-11-20T10:47:17;65.33;;;28.50;;
16393;SDS011;8306;51.128;4.476;2022-11-20T10:49:45;75.67;;;30.07;;
16393;SDS011;8306;51.128;4.476;2022-11-20T10:57:26;66.07;;;29.13;;
16393;SDS011;8306;51.128;4.476;2022-11-20T11:06:01;68.47;;;27.90;;
16393;SDS011;8306;51.128;4.476;2022-11-20T11:07:54;54.73;;;25.40;;
16393;SDS011;8306;51.128;4.476;2022-11-20T11:13:23;73.13;;;31.17;;
16393;SDS011;8306;51.128;4.476;2022-11-20T11:15:50;53.43;;;26.07;;
16393;SDS011;8306;51.128;4.476;2022-11-20T11:18:25;48.67;;;24.77;;
16393;SDS011;8306;51.128;4.476;2022-11-20T11:20:51;53.90;;;25.77;;
16393;SDS011;8306;51.128;4.476;2022-11-20T11:23:37;47.67;;;25.17;;
16393;SDS011;8306;51.128;4.476;2022-11-20T11:26:06;46.43;;;23.87;;
16393;SDS011;8306;51.128;4.476;2022-11-20T11:28:32;48.47;;;23.90;;
16393;SDS011;8306;51.128;4.476;2022-11-20T11:30:58;45.43;;;24.27;;
16393;SDS011;8306;51.128;4.476;2022-11-20T11:33:25;45.57;;;23.77;;
16393;SDS011;8306;51.128;4.476;2022-11-20T11:35:58;40.03;;;22.93;;
16393;SDS011;8306;51.128;4.476;2022-11-20T11:38:36;45.87;;;23.57;;
16393;SDS011;8306;51.128;4.476;2022-11-20T11:41:02;40.53;;;21.77;;
16393;SDS011;8306;51.128;4.476;2022-11-20T11:43:31;33.00;;;21.37;;
16393;SDS011;8306;51.128;4.476;2022-11-20T11:51:41;30.93;;;20.23;;
16393;SDS011;8306;51.128;4.476;2022-11-20T11:54:10;32.20;;;21.77;;
16393;SDS011;8306;51.128;4.476;2022-11-20T11:56:31;33.40;;;21.37;;
16393;SDS011;8306;51.128;4.476;2022-11-20T11:58:59;26.40;;;20.60;;
16393;SDS011;8306;51.128;4.476;2022-11-20T12:01:35;24.30;;;18.10;;
16393;SDS011;8306;51.128;4.476;2022-11-20T12:06:32;26.30;;;19.23;;
16393;SDS011;8306;51.128;4.476;2022-11-20T12:08:59;23.30;;;17.90;;
16393;SDS011;8306;51.128;4.476;2022-11-20T12:11:33;22.77;;;17.53;;
16393;SDS011;8306;51.128;4.476;2022-11-20T12:14:24;25.27;;;17.97;;
16393;SDS011;8306;51.128;4.476;2022-11-20T12:16:50;23.63;;;19.37;;
16393;SDS011;8306;51.128;4.476;2022-11-20T12:19:17;21.40;;;17.23;;
16393;SDS011;8306;51.128;4.476;2022-11-20T12:32:23;27.87;;;23.13;;
16393;SDS011;8306;51.128;4.476;2022-11-20T12:35:04;18.90;;;15.93;;
16393;SDS011;8306;51.128;4.476;2022-11-20T12:40:08;6.87;;;6.03;;
16393;SDS011;8306;51.128;4.476;2022-11-20T12:59:00;7.13;;;4.40;;
16393;SDS011;8306;51.128;4.476;2022-11-20T13:01:34;6.33;;;3.90;;
16393;SDS011;8306;51.128;4.476;2022-11-20T13:04:12;7.17;;;3.53;;
16393;SDS011;8306;51.128;4.476;2022-11-20T13:06:33;4.47;;;3.97;;
16393;SDS011;8306;51.128;4.476;2022-11-20T13:08:59;5.90;;;3.67;;
16393;SDS011;8306;51.128;4.476;2022-11-20T13:14:07;4.33;;;3.00;;
16393;SDS011;8306;51.128;4.476;2022-11-20T13:16:35;4.90;;;3.53;;
16393;SDS011;8306;51.128;4.476;2022-11-20T13:19:03;6.53;;;3.70;;
16393;SDS011;8306;51.128;4.476;2022-11-20T13:21:36;6.63;;;4.00;;
16393;SDS011;8306;51.128;4.476;2022-11-20T13:24:05;6.73;;;3.97;;
16393;SDS011;8306;51.128;4.476;2022-11-20T13:26:31;5.33;;;3.60;;
16393;SDS011;8306;51.128;4.476;2022-11-20T13:29:07;4.67;;;3.40;;
16393;SDS011;8306;51.128;4.476;2022-11-20T13:31:35;4.03;;;3.30;;
16393;SDS011;8306;51.128;4.476;2022-11-20T13:34:03;4.70;;;3.70;;
16393;SDS011;8306;51.128;4.476;2022-11-20T13:36:28;6.03;;;3.83;;
16393;SDS011;8306;51.128;4.476;2022-11-20T13:38:55;6.60;;;4.27;;
16393;SDS011;8306;51.128;4.476;2022-11-20T13:41:31;9.50;;;4.93;;
16393;SDS011;8306;51.128;4.476;2022-11-20T13:43:58;8.93;;;6.03;;
16393;SDS011;8306;51.128;4.476;2022-11-20T13:46:35;5.57;;;4.83;;
16393;SDS011;8306;51.128;4.476;2022-11-20T13:48:52;6.37;;;4.77;;
16393;SDS011;8306;51.128;4.476;2022-11-20T13:51:34;8.47;;;4.60;;
16393;SDS011;8306;51.128;4.476;2022-11-20T13:54:19;5.13;;;4.40;;
16393;SDS011;8306;51.128;4.476;2022-11-20T13:56:54;5.53;;;5.03;;
16393;SDS011;8306;51.128;4.476;2022-11-20T13:59:32;6.03;;;4.87;;
16393;SDS011;8306;51.128;4.476;2022-11-20T14:01:55;8.20;;;6.80;;
16393;SDS011;8306;51.128;4.476;2022-11-20T14:04:29;6.83;;;5.50;;
16393;SDS011;8306;51.128;4.476;2022-11-20T14:06:54;7.73;;;7.00;;
16393;SDS011;8306;51.128;4.476;2022-11-20T14:09:33;10.40;;;9.50;;
16393;SDS011;8306;51.128;4.476;2022-11-20T14:11:59;8.87;;;7.23;;
16393;SDS011;8306;51.128;4.476;2022-11-20T14:14:26;8.40;;;6.83;;
16393;SDS011;8306;51.128;4.476;2022-11-20T14:16:52;4.93;;;4.23;;
16393;SDS011;8306;51.128;4.476;2022-11-20T14:21:48;5.03;;;4.33;;
16393;SDS011;8306;51.128;4.476;2022-11-20T14:24:20;5.33;;;4.20;;
16393;SDS011;8306;51.128;4.476;2022-11-20T14:26:49;5.47;;;3.60;;
16393;SDS011;8306;51.128;4.476;2022-11-20T14:29:19;4.03;;;3.53;;
16393;SDS011;8306;51.128;4.476;2022-11-20T14:31:45;4.63;;;3.47;;
16393;SDS011;8306;51.128;4.476;2022-11-20T14:34:15;3.90;;;3.60;;
16393;SDS011;8306;51.128;4.476;2022-11-20T14:36:41;3.73;;;3.43;;
16393;SDS011;8306;51.128;4.476;2022-11-20T14:39:09;4.33;;;3.93;;
16393;SDS011;8306;51.128;4.476;2022-11-20T14:41:33;3.70;;;3.20;;
16393;SDS011;8306;51.128;4.476;2022-11-20T14:44:00;3.83;;;3.30;;
16393;SDS011;8306;51.128;4.476;2022-11-20T14:46:26;3.20;;;2.57;;
16393;SDS011;8306;51.128;4.476;2022-11-20T14:48:56;3.50;;;2.70;;
16393;SDS011;8306;51.128;4.476;2022-11-20T14:51:30;4.70;;;2.97;;
16393;SDS011;8306;51.128;4.476;2022-11-20T14:53:49;2.73;;;2.53;;
16393;SDS011;8306;51.128;4.476;2022-11-20T14:56:20;3.00;;;2.80;;
16393;SDS011;8306;51.128;4.476;2022-11-20T14:58:42;3.20;;;2.90;;
16393;SDS011;8306;51.128;4.476;2022-11-20T15:01:11;3.33;;;3.03;;
16393;SDS011;8306;51.128;4.476;2022-11-20T15:03:36;2.87;;;2.67;;
16393;SDS011;8306;51.128;4.476;2022-11-20T15:06:01;2.97;;;2.73;;
16393;SDS011;8306;51.128;4.476;2022-11-20T15:08:28;3.60;;;3.30;;
16393;SDS011;8306;51.128;4.476;2022-11-20T15:10:54;4.20;;;3.90;;
16393;SDS011;8306;51.128;4.476;2022-11-20T15:13:34;4.10;;;3.80;;
16393;SDS011;8306;51.128;4.476;2022-11-20T15:16:00;3.83;;;3.53;;
16393;SDS011;8306;51.128;4.476;2022-11-20T15:18:29;3.67;;;3.37;;
16393;SDS011;8306;51.128;4.476;2022-11-20T15:20:55;3.83;;;3.53;;
16393;SDS011;8306;51.128;4.476;2022-11-20T15:23:21;3.47;;;3.27;;
16393;SDS011;8306;51.128;4.476;2022-11-20T15:25:48;3.90;;;3.60;;
16393;SDS011;8306;51.128;4.476;2022-11-20T15:30:53;3.70;;;3.50;;
16393;SDS011;8306;51.128;4.476;2022-11-20T15:33:19;3.13;;;2.93;;
16393;SDS011;8306;51.128;4.476;2022-11-20T15:35:45;3.73;;;3.43;;
16393;SDS011;8306;51.128;4.476;2022-11-20T15:38:12;3.20;;;3.00;;
16393;SDS011;8306;51.128;4.476;2022-11-20T15:40:39;3.50;;;3.20;;
16393;SDS011;8306;51.128;4.476;2022-11-20T15:43:05;3.50;;;3.20;;
16393;SDS011;8306;51.128;4.476;2022-11-20T15:45:44;3.30;;;3.00;;
16393;SDS011;8306;51.128;4.476;2022-11-20T15:48:17;3.33;;;3.03;;
16393;SDS011;8306;51.128;4.476;2022-11-20T15:53:14;3.73;;;3.43;;
16393;SDS011;8306;51.128;4.476;2022-11-20T15:55:41;3.73;;;3.43;;
16393;SDS011;8306;51.128;4.476;2022-11-20T15:58:07;4.47;;;4.07;;
16393;SDS011;8306;51.128;4.476;2022-11-20T16:00:34;4.23;;;3.80;;
16393;SDS011;8306;51.128;4.476;2022-11-20T16:03:00;5.00;;;4.00;;
16393;SDS011;8306;51.128;4.476;2022-11-20T16:05:30;4.67;;;4.20;;
16393;SDS011;8306;51.128;4.476;2022-11-20T16:07:53;4.77;;;4.37;;
16393;SDS011;8306;51.128;4.476;2022-11-20T16:10:20;6.70;;;4.70;;
16393;SDS011;8306;51.128;4.476;2022-11-20T16:12:46;4.37;;;3.97;;
16393;SDS011;8306;51.128;4.476;2022-11-20T16:15:30;5.97;;;3.90;;
16393;SDS011;8306;51.128;4.476;2022-11-20T16:18:07;6.17;;;4.17;;